sensor_id;sensor_type;location;lat;lon;timestamp;P1;durP1;ratioP1;P2;durP2;ratioP2
1999;SDS011;1001;48.87406500;9.59633600;2023-02-01T00:01:50;8.77;;;4.60;;
1999;SDS011;1001;48.87406500;9.59633600;2023-02-01T00:04:17;5.13;;;4.00;;
1999;SDS011;1001;48.87406500;9.59633600;2023-02-01T00:06:43;6.77;;;4.53;;
1999;SDS011;1001;48.87406500;9.59633600;2023-02-01T00:09:10;7.10;;;4.27;;
1999;SDS011;1001;48.87406500;9.59633600;2023-02-01T00:11:37;6.03;;;4.70;;
1999;SDS011;1001;48.87406500;9.59633600;2023-02-01T00:14:05;7.43;;;4.30;;
1999;SDS011;1001;48.87406500;9.59633600;2023-02-01T00:16:33;7.50;;;4.93;;
1999;SDS011;1001;48.87406500;9.59633600;2023-02-01T00:19:00;5.87;;;3.80;;
1999;SDS011;1001;48.87406500;9.59633600;2023-02-01T00:21:28;6.87;;;3.87;;
1999;SDS011;1001;48.87406500;9.59633600;2023-02-01T00:23:55;6.27;;;4.37;;
1999;SDS011;1001;48.87406500;9.59633600;2023-02-01T00:26:22;5.53;;;3.40;;
1999;SDS011;1001;48.87406500;9.59633600;2023-02-01T00:28:53;4.13;;;3.23;;
1999;SDS011;1001;48.87406500;9.59633600;2023-02-01T00:31:21;4.80;;;3.40;;
1999;SDS011;1001;48.87406500;9.59633600;2023-02-01T00:33:48;5.20;;;3.60;;
1999;SDS011;1001;48.87406500;9.59633600;2023-02-01T00:36:15;5.20;;;3.63;;
1999;SDS011;1001;48.87406500;9.59633600;2023-02-01T00:38:42;7.17;;;3.77;;
1999;SDS011;1001;48.87406500;9.59633600;2023-02-01T00:41:10;7.03;;;4.30;;
1999;SDS011;1001;48.87406500;9.59633600;2023-02-01T00:43:38;4.70;;;3.73;;
1999;SDS011;1001;48.87406500;9.59633600;2023-02-01T00:46:05;5.57;;;3.37;;
1999;SDS011;1001;48.87406500;9.59633600;2023-02-01T00:48:33;4.30;;;3.37;;
1999;SDS011;1001;48.87406500;9.59633600;2023-02-01T00:51:00;4.57;;;2.60;;
1999;SDS011;1001;48.87406500;9.59633600;2023-02-01T00:53:27;4.93;;;3.37;;
1999;SDS011;1001;48.87406500;9.59633600;2023-02-01T00:55:53;6.27;;;3.40;;
1999;SDS011;1001;48.87406500;9.59633600;2023-02-01T00:58:21;4.93;;;3.00;;
1999;SDS011;1001;48.87406500;9.59633600;2023-02-01T01:00:49;4.27;;;3.70;;
1999;SDS011;1001;48.87406500;9.59633600;2023-02-01T01:03:15;5.03;;;4.00;;
1999;SDS011;1001;48.87406500;9.59633600;2023-02-01T01:05:46;4.53;;;3.70;;
1999;SDS011;1001;48.87406500;9.59633600;2023-02-01T01:08:14;5.63;;;3.37;;
1999;SDS011;1001;48.87406500;9.59633600;2023-02-01T01:10:42;4.23;;;3.40;;
1999;SDS011;1001;48.87406500;9.59633600;2023-02-01T01:13:09;4.67;;;3.07;;
1999;SDS011;1001;48.87406500;9.59633600;2023-02-01T01:15:37;5.23;;;2.83;;
1999;SDS011;1001;48.87406500;9.59633600;2023-02-01T01:18:04;4.43;;;3.50;;
1999;SDS011;1001;48.87406500;9.59633600;2023-02-01T01:20:33;5.23;;;2.83;;
1999;SDS011;1001;48.87406500;9.59633600;2023-02-01T01:23:03;6.03;;;3.30;;
1999;SDS011;1001;48.87406500;9.59633600;2023-02-01T01:25:30;5.83;;;3.47;;
1999;SDS011;1001;48.87406500;9.59633600;2023-02-01T01:27:56;4.70;;;3.30;;
1999;SDS011;1001;48.87406500;9.59633600;2023-02-01T01:30:23;3.63;;;2.70;;
1999;SDS011;1001;48.87406500;9.59633600;2023-02-01T01:32:51;5.33;;;3.17;;
1999;SDS011;1001;48.87406500;9.59633600;2023-02-01T01:35:17;3.70;;;2.40;;
1999;SDS011;1001;48.87406500;9.59633600;2023-02-01T01:37:44;3.57;;;2.57;;
1999;SDS011;1001;48.87406500;9.59633600;2023-02-01T01:40:12;6.53;;;3.57;;
1999;SDS011;1001;48.87406500;9.59633600;2023-02-01T01:42:39;6.53;;;2.87;;
1999;SDS011;1001;48.87406500;9.59633600;2023-02-01T01:45:22;4.53;;;3.10;;
1999;SDS011;1001;48.87406500;9.59633600;2023-02-01T01:47:53;4.43;;;3.27;;
1999;SDS011;1001;48.87406500;9.59633600;2023-02-01T01:50:23;4.07;;;3.00;;
1999;SDS011;1001;48.87406500;9.59633600;2023-02-01T01:52:52;5.77;;;2.83;;
1999;SDS011;1001;48.87406500;9.59633600;2023-02-01T01:55:23;4.40;;;2.73;;
1999;SDS011;1001;48.87406500;9.59633600;2023-02-01T01:57:53;3.80;;;2.47;;
1999;SDS011;1001;48.87406500;9.59633600;2023-02-01T02:00:23;3.43;;;2.67;;
1999;SDS011;1001;48.87406500;9.59633600;2023-02-01T02:02:52;2.67;;;2.20;;
1999;SDS011;1001;48.87406500;9.59633600;2023-02-01T02:05:23;3.43;;;2.47;;
1999;SDS011;1001;48.87406500;9.59633600;2023-02-01T02:07:51;2.17;;;1.93;;
1999;SDS011;1001;48.87406500;9.59633600;2023-02-01T02:10:19;3.40;;;2.67;;
1999;SDS011;1001;48.87406500;9.59633600;2023-02-01T02:13:07;3.10;;;1.60;;
1999;SDS011;1001;48.87406500;9.59633600;2023-02-01T02:15:35;3.87;;;2.40;;
1999;SDS011;1001;48.87406500;9.59633600;2023-02-01T02:18:09;2.23;;;2.00;;
1999;SDS011;1001;48.87406500;9.59633600;2023-02-01T02:23:54;2.13;;;1.93;;
1999;SDS011;1001;48.87406500;9.59633600;2023-02-01T02:26:56;2.10;;;1.63;;
1999;SDS011;1001;48.87406500;9.59633600;2023-02-01T02:30:02;3.23;;;2.10;;
1999;SDS011;1001;48.87406500;9.59633600;2023-02-01T02:33:10;3.07;;;2.40;;
1999;SDS011;1001;48.87406500;9.59633600;2023-02-01T02:35:59;3.37;;;2.23;;
1999;SDS011;1001;48.87406500;9.59633600;2023-02-01T02:38:29;3.03;;;1.80;;
1999;SDS011;1001;48.87406500;9.59633600;2023-02-01T02:41:05;2.50;;;1.90;;
1999;SDS011;1001;48.87406500;9.59633600;2023-02-01T02:44:00;2.93;;;2.23;;
1999;SDS011;1001;48.87406500;9.59633600;2023-02-01T02:46:52;2.57;;;2.37;;
1999;SDS011;1001;48.87406500;9.59633600;2023-02-01T02:49:40;3.50;;;2.43;;
1999;SDS011;1001;48.87406500;9.59633600;2023-02-01T02:52:33;2.33;;;2.00;;
1999;SDS011;1001;48.87406500;9.59633600;2023-02-01T02:55:24;2.50;;;2.10;;
1999;SDS011;1001;48.87406500;9.59633600;2023-02-01T02:57:53;2.40;;;1.80;;
1999;SDS011;1001;48.87406500;9.59633600;2023-02-01T03:00:39;2.57;;;2.10;;
1999;SDS011;1001;48.87406500;9.59633600;2023-02-01T03:03:25;4.33;;;2.67;;
1999;SDS011;1001;48.87406500;9.59633600;2023-02-01T03:06:12;3.77;;;2.83;;
1999;SDS011;1001;48.87406500;9.59633600;2023-02-01T03:08:41;2.70;;;1.80;;
1999;SDS011;1001;48.87406500;9.59633600;2023-02-01T03:11:10;2.90;;;2.37;;
1999;SDS011;1001;48.87406500;9.59633600;2023-02-01T03:13:40;2.00;;;1.80;;
1999;SDS011;1001;48.87406500;9.59633600;2023-02-01T03:16:12;3.80;;;2.27;;
1999;SDS011;1001;48.87406500;9.59633600;2023-02-01T03:18:46;2.40;;;2.20;;
1999;SDS011;1001;48.87406500;9.59633600;2023-02-01T03:21:21;3.57;;;2.43;;
1999;SDS011;1001;48.87406500;9.59633600;2023-02-01T03:23:51;2.00;;;1.60;;
1999;SDS011;1001;48.87406500;9.59633600;2023-02-01T03:26:22;3.13;;;1.93;;
1999;SDS011;1001;48.87406500;9.59633600;2023-02-01T03:28:54;2.90;;;2.33;;
1999;SDS011;1001;48.87406500;9.59633600;2023-02-01T03:31:23;3.80;;;2.57;;
1999;SDS011;1001;48.87406500;9.59633600;2023-02-01T03:33:50;3.70;;;2.57;;
1999;SDS011;1001;48.87406500;9.59633600;2023-02-01T03:36:20;3.80;;;2.60;;
1999;SDS011;1001;48.87406500;9.59633600;2023-02-01T03:38:55;3.20;;;2.13;;
1999;SDS011;1001;48.87406500;9.59633600;2023-02-01T03:41:28;3.47;;;2.70;;
1999;SDS011;1001;48.87406500;9.59633600;2023-02-01T03:44:01;4.50;;;2.70;;
1999;SDS011;1001;48.87406500;9.59633600;2023-02-01T03:46:37;3.60;;;2.57;;
1999;SDS011;1001;48.87406500;9.59633600;2023-02-01T03:49:08;3.30;;;2.50;;
1999;SDS011;1001;48.87406500;9.59633600;2023-02-01T03:51:40;3.10;;;2.33;;
1999;SDS011;1001;48.87406500;9.59633600;2023-02-01T03:54:08;3.10;;;2.03;;
1999;SDS011;1001;48.87406500;9.59633600;2023-02-01T03:56:38;3.37;;;2.13;;
1999;SDS011;1001;48.87406500;9.59633600;2023-02-01T03:59:09;3.50;;;2.47;;
1999;SDS011;1001;48.87406500;9.59633600;2023-02-01T04:01:36;4.50;;;2.40;;
1999;SDS011;1001;48.87406500;9.59633600;2023-02-01T04:04:02;4.53;;;2.80;;
1999;SDS011;1001;48.87406500;9.59633600;2023-02-01T04:06:29;3.03;;;2.57;;
1999;SDS011;1001;48.87406500;9.59633600;2023-02-01T04:08:57;5.47;;;4.20;;
1999;SDS011;1001;48.87406500;9.59633600;2023-02-01T04:11:24;5.17;;;3.07;;
1999;SDS011;1001;48.87406500;9.59633600;2023-02-01T04:13:52;3.73;;;2.93;;
1999;SDS011;1001;48.87406500;9.59633600;2023-02-01T04:16:19;3.83;;;2.63;;
1999;SDS011;1001;48.87406500;9.59633600;2023-02-01T04:18:45;3.90;;;2.80;;
1999;SDS011;1001;48.87406500;9.59633600;2023-02-01T04:21:12;3.10;;;2.77;;
1999;SDS011;1001;48.87406500;9.59633600;2023-02-01T04:23:38;3.10;;;2.50;;
1999;SDS011;1001;48.87406500;9.59633600;2023-02-01T04:26:06;3.00;;;2.27;;
1999;SDS011;1001;48.87406500;9.59633600;2023-02-01T04:28:33;4.50;;;2.80;;
1999;SDS011;1001;48.87406500;9.59633600;2023-02-01T04:30:59;2.93;;;2.60;;
1999;SDS011;1001;48.87406500;9.59633600;2023-02-01T04:33:26;5.80;;;3.07;;
1999;SDS011;1001;48.87406500;9.59633600;2023-02-01T04:35:52;3.83;;;2.63;;
1999;SDS011;1001;48.87406500;9.59633600;2023-02-01T04:38:19;4.23;;;3.40;;
1999;SDS011;1001;48.87406500;9.59633600;2023-02-01T04:40:46;2.93;;;2.63;;
1999;SDS011;1001;48.87406500;9.59633600;2023-02-01T04:43:15;4.67;;;2.90;;
1999;SDS011;1001;48.87406500;9.59633600;2023-02-01T04:45:46;4.00;;;2.90;;
1999;SDS011;1001;48.87406500;9.59633600;2023-02-01T04:48:13;4.77;;;2.70;;
1999;SDS011;1001;48.87406500;9.59633600;2023-02-01T04:50:40;3.70;;;2.53;;
1999;SDS011;1001;48.87406500;9.59633600;2023-02-01T04:53:07;3.10;;;1.90;;
1999;SDS011;1001;48.87406500;9.59633600;2023-02-01T04:55:33;3.37;;;2.30;;
1999;SDS011;1001;48.87406500;9.59633600;2023-02-01T04:58:00;4.13;;;2.40;;
1999;SDS011;1001;48.87406500;9.59633600;2023-02-01T05:00:28;3.13;;;2.30;;
1999;SDS011;1001;48.87406500;9.59633600;2023-02-01T05:02:54;3.20;;;2.50;;
1999;SDS011;1001;48.87406500;9.59633600;2023-02-01T05:05:21;4.10;;;2.40;;
1999;SDS011;1001;48.87406500;9.59633600;2023-02-01T05:07:47;2.70;;;2.40;;
1999;SDS011;1001;48.87406500;9.59633600;2023-02-01T05:10:14;3.17;;;2.20;;
1999;SDS011;1001;48.87406500;9.59633600;2023-02-01T05:12:42;3.00;;;2.50;;
1999;SDS011;1001;48.87406500;9.59633600;2023-02-01T05:15:28;4.63;;;2.80;;
1999;SDS011;1001;48.87406500;9.59633600;2023-02-01T05:17:55;2.30;;;2.00;;
1999;SDS011;1001;48.87406500;9.59633600;2023-02-01T05:20:22;3.73;;;3.07;;
1999;SDS011;1001;48.87406500;9.59633600;2023-02-01T05:22:48;3.77;;;2.70;;
1999;SDS011;1001;48.87406500;9.59633600;2023-02-01T05:25:15;3.90;;;3.10;;
1999;SDS011;1001;48.87406500;9.59633600;2023-02-01T05:27:42;3.80;;;3.03;;
1999;SDS011;1001;48.87406500;9.59633600;2023-02-01T05:30:09;4.47;;;3.30;;
1999;SDS011;1001;48.87406500;9.59633600;2023-02-01T05:32:38;4.30;;;3.07;;
1999;SDS011;1001;48.87406500;9.59633600;2023-02-01T05:35:04;2.70;;;2.40;;
1999;SDS011;1001;48.87406500;9.59633600;2023-02-01T05:37:32;8.00;;;3.00;;
1999;SDS011;1001;48.87406500;9.59633600;2023-02-01T05:39:58;3.23;;;2.93;;
1999;SDS011;1001;48.87406500;9.59633600;2023-02-01T05:42:25;3.60;;;2.90;;
1999;SDS011;1001;48.87406500;9.59633600;2023-02-01T05:44:51;3.47;;;2.67;;
1999;SDS011;1001;48.87406500;9.59633600;2023-02-01T05:47:18;5.17;;;2.87;;
1999;SDS011;1001;48.87406500;9.59633600;2023-02-01T05:49:47;3.50;;;2.53;;
1999;SDS011;1001;48.87406500;9.59633600;2023-02-01T05:52:13;3.60;;;2.83;;
1999;SDS011;1001;48.87406500;9.59633600;2023-02-01T05:54:44;3.17;;;2.80;;
1999;SDS011;1001;48.87406500;9.59633600;2023-02-01T05:57:10;3.60;;;2.60;;
1999;SDS011;1001;48.87406500;9.59633600;2023-02-01T05:59:37;4.03;;;2.87;;
1999;SDS011;1001;48.87406500;9.59633600;2023-02-01T06:02:06;4.07;;;3.30;;
1999;SDS011;1001;48.87406500;9.59633600;2023-02-01T06:04:32;2.60;;;2.17;;
1999;SDS011;1001;48.87406500;9.59633600;2023-02-01T06:07:00;5.80;;;3.00;;
1999;SDS011;1001;48.87406500;9.59633600;2023-02-01T06:09:27;4.63;;;2.80;;
1999;SDS011;1001;48.87406500;9.59633600;2023-02-01T06:11:54;8.47;;;3.33;;
1999;SDS011;1001;48.87406500;9.59633600;2023-02-01T06:14:20;6.40;;;3.10;;
1999;SDS011;1001;48.87406500;9.59633600;2023-02-01T06:16:47;4.10;;;2.40;;
1999;SDS011;1001;48.87406500;9.59633600;2023-02-01T06:19:13;2.53;;;2.27;;
1999;SDS011;1001;48.87406500;9.59633600;2023-02-01T06:21:40;4.40;;;2.73;;
1999;SDS011;1001;48.87406500;9.59633600;2023-02-01T06:24:08;4.00;;;2.50;;
1999;SDS011;1001;48.87406500;9.59633600;2023-02-01T06:26:35;4.33;;;2.33;;
1999;SDS011;1001;48.87406500;9.59633600;2023-02-01T06:29:02;5.10;;;2.33;;
1999;SDS011;1001;48.87406500;9.59633600;2023-02-01T06:31:29;4.13;;;2.67;;
1999;SDS011;1001;48.87406500;9.59633600;2023-02-01T06:33:57;3.10;;;2.27;;
1999;SDS011;1001;48.87406500;9.59633600;2023-02-01T06:36:23;2.50;;;2.10;;
1999;SDS011;1001;48.87406500;9.59633600;2023-02-01T06:38:50;3.63;;;2.27;;
1999;SDS011;1001;48.87406500;9.59633600;2023-02-01T06:41:18;5.30;;;2.30;;
1999;SDS011;1001;48.87406500;9.59633600;2023-02-01T06:43:45;3.57;;;2.40;;
1999;SDS011;1001;48.87406500;9.59633600;2023-02-01T06:46:12;2.97;;;2.50;;
1999;SDS011;1001;48.87406500;9.59633600;2023-02-01T06:48:39;4.33;;;2.93;;
1999;SDS011;1001;48.87406500;9.59633600;2023-02-01T06:51:10;3.47;;;2.40;;
1999;SDS011;1001;48.87406500;9.59633600;2023-02-01T06:53:44;6.10;;;3.70;;
1999;SDS011;1001;48.87406500;9.59633600;2023-02-01T06:56:11;5.97;;;3.27;;
1999;SDS011;1001;48.87406500;9.59633600;2023-02-01T06:58:39;5.90;;;3.00;;
1999;SDS011;1001;48.87406500;9.59633600;2023-02-01T07:01:06;7.00;;;3.03;;
1999;SDS011;1001;48.87406500;9.59633600;2023-02-01T07:03:33;3.80;;;3.07;;
1999;SDS011;1001;48.87406500;9.59633600;2023-02-01T07:06:00;4.03;;;3.43;;
1999;SDS011;1001;48.87406500;9.59633600;2023-02-01T07:08:27;4.00;;;2.73;;
1999;SDS011;1001;48.87406500;9.59633600;2023-02-01T07:10:54;3.57;;;2.83;;
1999;SDS011;1001;48.87406500;9.59633600;2023-02-01T07:13:20;2.73;;;2.20;;
1999;SDS011;1001;48.87406500;9.59633600;2023-02-01T07:15:48;7.70;;;3.67;;
1999;SDS011;1001;48.87406500;9.59633600;2023-02-01T07:18:15;4.20;;;2.80;;
1999;SDS011;1001;48.87406500;9.59633600;2023-02-01T07:20:41;3.87;;;2.83;;
1999;SDS011;1001;48.87406500;9.59633600;2023-02-01T07:23:09;5.73;;;2.80;;
1999;SDS011;1001;48.87406500;9.59633600;2023-02-01T07:25:36;2.90;;;2.60;;
1999;SDS011;1001;48.87406500;9.59633600;2023-02-01T07:28:03;3.43;;;2.90;;
1999;SDS011;1001;48.87406500;9.59633600;2023-02-01T07:30:29;3.40;;;2.53;;
1999;SDS011;1001;48.87406500;9.59633600;2023-02-01T07:32:57;5.80;;;2.97;;
1999;SDS011;1001;48.87406500;9.59633600;2023-02-01T07:35:26;5.70;;;3.80;;
1999;SDS011;1001;48.87406500;9.59633600;2023-02-01T07:37:52;4.63;;;3.60;;
1999;SDS011;1001;48.87406500;9.59633600;2023-02-01T07:40:19;4.60;;;3.90;;
1999;SDS011;1001;48.87406500;9.59633600;2023-02-01T07:42:53;5.00;;;4.50;;
1999;SDS011;1001;48.87406500;9.59633600;2023-02-01T07:45:20;7.07;;;4.70;;
1999;SDS011;1001;48.87406500;9.59633600;2023-02-01T07:47:46;8.70;;;4.90;;
1999;SDS011;1001;48.87406500;9.59633600;2023-02-01T07:50:14;4.93;;;4.43;;
1999;SDS011;1001;48.87406500;9.59633600;2023-02-01T07:52:41;7.80;;;4.57;;
1999;SDS011;1001;48.87406500;9.59633600;2023-02-01T07:55:08;7.10;;;4.13;;
1999;SDS011;1001;48.87406500;9.59633600;2023-02-01T07:57:35;8.03;;;4.70;;
1999;SDS011;1001;48.87406500;9.59633600;2023-02-01T08:00:02;10.00;;;4.60;;
1999;SDS011;1001;48.87406500;9.59633600;2023-02-01T08:02:47;11.87;;;5.40;;
1999;SDS011;1001;48.87406500;9.59633600;2023-02-01T08:05:15;5.30;;;4.20;;
1999;SDS011;1001;48.87406500;9.59633600;2023-02-01T08:07:41;8.33;;;4.40;;
1999;SDS011;1001;48.87406500;9.59633600;2023-02-01T08:10:08;6.30;;;5.60;;
1999;SDS011;1001;48.87406500;9.59633600;2023-02-01T08:12:36;7.60;;;5.30;;
1999;SDS011;1001;48.87406500;9.59633600;2023-02-01T08:15:03;10.27;;;5.70;;
1999;SDS011;1001;48.87406500;9.59633600;2023-02-01T08:17:31;5.70;;;5.10;;
1999;SDS011;1001;48.87406500;9.59633600;2023-02-01T08:19:57;11.33;;;5.47;;
1999;SDS011;1001;48.87406500;9.59633600;2023-02-01T08:22:25;11.43;;;5.67;;
1999;SDS011;1001;48.87406500;9.59633600;2023-02-01T08:24:52;6.30;;;4.40;;
1999;SDS011;1001;48.87406500;9.59633600;2023-02-01T08:27:26;8.77;;;4.57;;
1999;SDS011;1001;48.87406500;9.59633600;2023-02-01T08:29:52;6.90;;;4.43;;
1999;SDS011;1001;48.87406500;9.59633600;2023-02-01T08:32:19;5.27;;;4.50;;
1999;SDS011;1001;48.87406500;9.59633600;2023-02-01T08:34:46;8.13;;;5.67;;
1999;SDS011;1001;48.87406500;9.59633600;2023-02-01T08:37:12;7.73;;;4.77;;
1999;SDS011;1001;48.87406500;9.59633600;2023-02-01T08:39:40;7.13;;;4.10;;
1999;SDS011;1001;48.87406500;9.59633600;2023-02-01T08:42:08;5.17;;;3.90;;
1999;SDS011;1001;48.87406500;9.59633600;2023-02-01T08:44:52;7.50;;;5.00;;
1999;SDS011;1001;48.87406500;9.59633600;2023-02-01T08:47:18;5.60;;;4.30;;
1999;SDS011;1001;48.87406500;9.59633600;2023-02-01T08:49:45;10.63;;;4.50;;
1999;SDS011;1001;48.87406500;9.59633600;2023-02-01T08:52:12;6.70;;;5.23;;
1999;SDS011;1001;48.87406500;9.59633600;2023-02-01T08:54:38;6.20;;;4.30;;
1999;SDS011;1001;48.87406500;9.59633600;2023-02-01T08:57:08;6.07;;;4.43;;
1999;SDS011;1001;48.87406500;9.59633600;2023-02-01T08:59:35;8.50;;;4.57;;
1999;SDS011;1001;48.87406500;9.59633600;2023-02-01T09:02:02;7.97;;;4.90;;
1999;SDS011;1001;48.87406500;9.59633600;2023-02-01T09:04:28;6.30;;;4.33;;
1999;SDS011;1001;48.87406500;9.59633600;2023-02-01T09:06:55;4.97;;;3.83;;
1999;SDS011;1001;48.87406500;9.59633600;2023-02-01T09:09:22;7.77;;;4.00;;
1999;SDS011;1001;48.87406500;9.59633600;2023-02-01T09:11:48;10.40;;;4.77;;
1999;SDS011;1001;48.87406500;9.59633600;2023-02-01T09:14:16;6.60;;;3.90;;
1999;SDS011;1001;48.87406500;9.59633600;2023-02-01T09:16:43;10.60;;;5.10;;
1999;SDS011;1001;48.87406500;9.59633600;2023-02-01T09:19:10;7.70;;;4.53;;
1999;SDS011;1001;48.87406500;9.59633600;2023-02-01T09:21:36;8.07;;;4.13;;
1999;SDS011;1001;48.87406500;9.59633600;2023-02-01T09:24:03;8.17;;;4.60;;
1999;SDS011;1001;48.87406500;9.59633600;2023-02-01T09:26:30;9.53;;;4.87;;
1999;SDS011;1001;48.87406500;9.59633600;2023-02-01T09:28:56;6.07;;;3.83;;
1999;SDS011;1001;48.87406500;9.59633600;2023-02-01T09:31:24;4.60;;;3.50;;
1999;SDS011;1001;48.87406500;9.59633600;2023-02-01T09:33:51;5.33;;;3.00;;
1999;SDS011;1001;48.87406500;9.59633600;2023-02-01T09:36:17;15.80;;;4.80;;
1999;SDS011;1001;48.87406500;9.59633600;2023-02-01T09:38:44;7.13;;;3.97;;
1999;SDS011;1001;48.87406500;9.59633600;2023-02-01T09:41:16;6.70;;;3.53;;
1999;SDS011;1001;48.87406500;9.59633600;2023-02-01T09:43:55;6.17;;;3.80;;
1999;SDS011;1001;48.87406500;9.59633600;2023-02-01T09:46:30;6.37;;;3.83;;
1999;SDS011;1001;48.87406500;9.59633600;2023-02-01T09:49:00;3.80;;;2.80;;
1999;SDS011;1001;48.87406500;9.59633600;2023-02-01T09:51:31;7.30;;;3.77;;
1999;SDS011;1001;48.87406500;9.59633600;2023-02-01T09:54:02;5.77;;;3.63;;
1999;SDS011;1001;48.87406500;9.59633600;2023-02-01T09:56:33;4.63;;;3.10;;
1999;SDS011;1001;48.87406500;9.59633600;2023-02-01T09:59:09;13.20;;;4.40;;
1999;SDS011;1001;48.87406500;9.59633600;2023-02-01T10:01:46;6.27;;;3.53;;
1999;SDS011;1001;48.87406500;9.59633600;2023-02-01T10:04:13;14.10;;;3.97;;
1999;SDS011;1001;48.87406500;9.59633600;2023-02-01T10:06:45;4.50;;;3.27;;
1999;SDS011;1001;48.87406500;9.59633600;2023-02-01T10:09:33;8.27;;;4.20;;
1999;SDS011;1001;48.87406500;9.59633600;2023-02-01T10:12:18;7.03;;;3.83;;
1999;SDS011;1001;48.87406500;9.59633600;2023-02-01T10:15:15;8.53;;;4.10;;
1999;SDS011;1001;48.87406500;9.59633600;2023-02-01T10:17:56;9.67;;;3.90;;
1999;SDS011;1001;48.87406500;9.59633600;2023-02-01T10:20:36;9.97;;;4.20;;
1999;SDS011;1001;48.87406500;9.59633600;2023-02-01T10:23:21;9.80;;;3.87;;
1999;SDS011;1001;48.87406500;9.59633600;2023-02-01T10:25:59;4.07;;;2.97;;
1999;SDS011;1001;48.87406500;9.59633600;2023-02-01T10:28:31;5.77;;;3.10;;
1999;SDS011;1001;48.87406500;9.59633600;2023-02-01T10:31:02;8.20;;;3.57;;
1999;SDS011;1001;48.87406500;9.59633600;2023-02-01T10:33:32;9.03;;;3.37;;
1999;SDS011;1001;48.87406500;9.59633600;2023-02-01T10:36:01;9.43;;;3.70;;
1999;SDS011;1001;48.87406500;9.59633600;2023-02-01T10:38:36;9.73;;;3.77;;
1999;SDS011;1001;48.87406500;9.59633600;2023-02-01T10:41:04;6.70;;;2.67;;
1999;SDS011;1001;48.87406500;9.59633600;2023-02-01T10:43:38;9.37;;;3.90;;
1999;SDS011;1001;48.87406500;9.59633600;2023-02-01T10:46:05;9.10;;;3.20;;
1999;SDS011;1001;48.87406500;9.59633600;2023-02-01T10:48:34;10.63;;;4.47;;
1999;SDS011;1001;48.87406500;9.59633600;2023-02-01T10:51:02;4.43;;;2.40;;
1999;SDS011;1001;48.87406500;9.59633600;2023-02-01T10:53:33;3.60;;;2.17;;
1999;SDS011;1001;48.87406500;9.59633600;2023-02-01T10:56:08;8.07;;;3.40;;
1999;SDS011;1001;48.87406500;9.59633600;2023-02-01T10:58:42;13.13;;;3.43;;
1999;SDS011;1001;48.87406500;9.59633600;2023-02-01T11:01:10;10.07;;;2.70;;
1999;SDS011;1001;48.87406500;9.59633600;2023-02-01T11:03:45;12.23;;;3.47;;
1999;SDS011;1001;48.87406500;9.59633600;2023-02-01T11:06:22;6.60;;;3.00;;
1999;SDS011;1001;48.87406500;9.59633600;2023-02-01T11:08:53;7.10;;;3.00;;
1999;SDS011;1001;48.87406500;9.59633600;2023-02-01T11:11:21;10.40;;;3.20;;
1999;SDS011;1001;48.87406500;9.59633600;2023-02-01T11:13:53;7.63;;;3.00;;
1999;SDS011;1001;48.87406500;9.59633600;2023-02-01T11:16:21;11.50;;;4.63;;
1999;SDS011;1001;48.87406500;9.59633600;2023-02-01T11:18:57;8.80;;;2.90;;
1999;SDS011;1001;48.87406500;9.59633600;2023-02-01T11:21:24;11.70;;;3.90;;
1999;SDS011;1001;48.87406500;9.59633600;2023-02-01T11:23:52;5.10;;;2.67;;
1999;SDS011;1001;48.87406500;9.59633600;2023-02-01T11:26:22;14.13;;;3.80;;
1999;SDS011;1001;48.87406500;9.59633600;2023-02-01T11:28:52;16.90;;;3.30;;
1999;SDS011;1001;48.87406500;9.59633600;2023-02-01T11:31:22;7.60;;;2.23;;
1999;SDS011;1001;48.87406500;9.59633600;2023-02-01T11:33:52;6.93;;;2.83;;
1999;SDS011;1001;48.87406500;9.59633600;2023-02-01T11:36:26;6.23;;;2.87;;
1999;SDS011;1001;48.87406500;9.59633600;2023-02-01T11:38:54;8.27;;;3.20;;
1999;SDS011;1001;48.87406500;9.59633600;2023-02-01T11:41:40;20.77;;;3.20;;
1999;SDS011;1001;48.87406500;9.59633600;2023-02-01T11:44:16;5.97;;;3.67;;
1999;SDS011;1001;48.87406500;9.59633600;2023-02-01T11:46:46;5.33;;;3.07;;
1999;SDS011;1001;48.87406500;9.59633600;2023-02-01T11:49:14;6.90;;;2.70;;
1999;SDS011;1001;48.87406500;9.59633600;2023-02-01T11:51:50;6.90;;;2.80;;
1999;SDS011;1001;48.87406500;9.59633600;2023-02-01T11:54:35;8.03;;;2.80;;
1999;SDS011;1001;48.87406500;9.59633600;2023-02-01T11:57:20;11.13;;;2.77;;
1999;SDS011;1001;48.87406500;9.59633600;2023-02-01T12:00:11;7.83;;;2.90;;
1999;SDS011;1001;48.87406500;9.59633600;2023-02-01T12:03:07;9.97;;;2.43;;
1999;SDS011;1001;48.87406500;9.59633600;2023-02-01T12:05:53;7.03;;;3.20;;
1999;SDS011;1001;48.87406500;9.59633600;2023-02-01T12:08:29;10.93;;;2.43;;
1999;SDS011;1001;48.87406500;9.59633600;2023-02-01T12:11:19;9.40;;;2.40;;
1999;SDS011;1001;48.87406500;9.59633600;2023-02-01T12:13:55;8.70;;;4.13;;
1999;SDS011;1001;48.87406500;9.59633600;2023-02-01T12:16:40;8.33;;;2.57;;
1999;SDS011;1001;48.87406500;9.59633600;2023-02-01T12:22:12;3.73;;;2.03;;
1999;SDS011;1001;48.87406500;9.59633600;2023-02-01T12:24:54;5.00;;;2.33;;
1999;SDS011;1001;48.87406500;9.59633600;2023-02-01T12:27:43;9.07;;;2.37;;
1999;SDS011;1001;48.87406500;9.59633600;2023-02-01T12:30:28;6.70;;;2.67;;
1999;SDS011;1001;48.87406500;9.59633600;2023-02-01T12:33:17;5.93;;;2.90;;
1999;SDS011;1001;48.87406500;9.59633600;2023-02-01T12:35:50;7.57;;;2.53;;
1999;SDS011;1001;48.87406500;9.59633600;2023-02-01T12:38:39;6.63;;;2.13;;
1999;SDS011;1001;48.87406500;9.59633600;2023-02-01T12:41:19;5.00;;;2.20;;
1999;SDS011;1001;48.87406500;9.59633600;2023-02-01T12:43:59;8.17;;;2.67;;
1999;SDS011;1001;48.87406500;9.59633600;2023-02-01T12:46:32;10.63;;;2.30;;
1999;SDS011;1001;48.87406500;9.59633600;2023-02-01T12:49:02;7.20;;;2.13;;
1999;SDS011;1001;48.87406500;9.59633600;2023-02-01T12:51:36;5.97;;;2.33;;
1999;SDS011;1001;48.87406500;9.59633600;2023-02-01T12:54:06;3.40;;;1.90;;
1999;SDS011;1001;48.87406500;9.59633600;2023-02-01T12:56:44;11.73;;;2.40;;
1999;SDS011;1001;48.87406500;9.59633600;2023-02-01T12:59:17;2.77;;;1.70;;
1999;SDS011;1001;48.87406500;9.59633600;2023-02-01T13:01:49;9.93;;;2.20;;
1999;SDS011;1001;48.87406500;9.59633600;2023-02-01T13:04:24;9.13;;;2.50;;
1999;SDS011;1001;48.87406500;9.59633600;2023-02-01T13:06:56;7.30;;;2.40;;
1999;SDS011;1001;48.87406500;9.59633600;2023-02-01T13:09:31;6.53;;;2.23;;
1999;SDS011;1001;48.87406500;9.59633600;2023-02-01T13:12:07;6.30;;;2.87;;
1999;SDS011;1001;48.87406500;9.59633600;2023-02-01T13:14:39;5.73;;;2.37;;
1999;SDS011;1001;48.87406500;9.59633600;2023-02-01T13:17:12;12.87;;;2.70;;
1999;SDS011;1001;48.87406500;9.59633600;2023-02-01T13:19:42;8.90;;;2.90;;
1999;SDS011;1001;48.87406500;9.59633600;2023-02-01T13:22:16;5.77;;;2.30;;
1999;SDS011;1001;48.87406500;9.59633600;2023-02-01T13:24:47;5.37;;;2.03;;
1999;SDS011;1001;48.87406500;9.59633600;2023-02-01T13:27:17;4.00;;;2.17;;
1999;SDS011;1001;48.87406500;9.59633600;2023-02-01T13:29:47;10.87;;;2.77;;
1999;SDS011;1001;48.87406500;9.59633600;2023-02-01T13:32:28;6.07;;;2.30;;
1999;SDS011;1001;48.87406500;9.59633600;2023-02-01T13:35:24;5.73;;;2.43;;
1999;SDS011;1001;48.87406500;9.59633600;2023-02-01T13:38:08;10.10;;;2.27;;